Time;durP1;ratioP1;P1;durP2;ratioP2;P2;SDS_P1;SDS_P2;PMS_P1;PMS_P2;Temp;Humidity;BMP_temperature;BMP_pressure;BME280_temperature;BME280_humidity;BME280_pressure;Samples;Min_cycle;Max_cycle;Signal;HPM_P1;HPM_P2
2022/11/12 00:00:11;;;;;;;;;26.00;22.00;;;;;12.98;69.10;102182.06;5014483;28;45679;-76
2022/11/12 00:05:58;;;;;;;;;18.75;18.75;;;;;12.94;69.44;102183.19;5014183;28;46057;-76
2022/11/12 00:08:24;;;;;;;;;24.25;21.50;;;;;12.94;68.95;102183.19;5014440;28;45695;-76
2022/11/12 00:10:49;;;;;;;;;22.25;21.50;;;;;12.97;69.59;102197.91;5014338;28;45868;-76
2022/11/12 00:13:15;;;;;;;;;22.00;21.75;;;;;12.97;69.15;102190.88;4995700;28;45693;-77
2022/11/12 00:15:41;;;;;;;;;20.50;18.00;;;;;12.91;69.06;102178.06;5014333;28;45635;-74
2022/11/12 00:18:06;;;;;;;;;21.00;19.50;;;;;12.93;69.08;102178.84;5013873;28;46194;-76
2022/11/12 00:20:32;;;;;;;;;23.75;22.00;;;;;12.95;69.37;102194.56;5014025;28;45844;-77
2022/11/12 00:22:57;;;;;;;;;27.00;22.25;;;;;12.94;69.04;102200.75;5013970;28;45762;-76
2022/11/12 00:25:23;;;;;;;;;22.75;22.00;;;;;12.91;69.08;102200.88;5013984;28;45652;-77
2022/11/12 00:27:49;;;;;;;;;21.50;20.00;;;;;12.93;69.53;102202.53;5013205;28;46295;-74
2022/11/12 00:30:16;;;;;;;;;22.00;18.75;;;;;12.93;69.10;102205.16;5014299;28;45634;-77
2022/11/12 00:36:03;;;;;;;;;19.25;16.50;;;;;12.88;69.26;102191.41;5013682;28;45640;-76
2022/11/12 00:38:29;;;;;;;;;18.00;15.75;;;;;12.87;69.49;102189.69;5014009;28;46297;-78
2022/11/12 00:40:58;;;;;;;;;22.50;22.25;;;;;12.87;69.57;102196.75;5014106;28;45688;-77
2022/11/12 00:43:23;;;;;;;;;23.00;19.00;;;;;12.86;69.50;102197.66;5013948;28;45614;-78
2022/11/12 00:45:49;;;;;;;;;23.00;21.75;;;;;12.83;69.23;102197.84;5013515;28;47460;-78
2022/11/12 00:48:14;;;;;;;;;22.75;22.25;;;;;12.82;69.70;102193.50;5013671;28;47433;-77
2022/11/12 00:50:39;;;;;;;;;21.50;20.00;;;;;12.81;69.46;102186.56;5012663;28;45752;-78
2022/11/12 00:53:05;;;;;;;;;23.50;20.25;;;;;12.80;69.91;102185.69;5013441;28;45629;-78
2022/11/12 00:55:30;;;;;;;;;23.00;21.00;;;;;12.80;69.50;102184.84;5013813;28;46313;-78
2022/11/12 00:57:57;;;;;;;;;21.00;20.50;;;;;12.77;69.47;102177.16;5013745;28;45534;-78
2022/11/12 01:00:24;;;;;;;;;19.75;16.25;;;;;12.79;69.58;102191.06;5013460;28;45729;-76
2022/11/12 01:06:14;;;;;;;;;20.75;20.00;;;;;12.75;69.83;102194.78;5013470;28;46097;-74
2022/11/12 01:08:41;;;;;;;;;23.00;21.25;;;;;12.73;69.63;102186.16;5013422;28;46358;-77
2022/11/12 01:11:09;;;;;;;;;19.50;17.00;;;;;12.74;69.52;102187.84;5013666;28;46073;-75
2022/11/12 01:13:36;;;;;;;;;19.50;17.50;;;;;12.73;69.55;102179.09;5013386;28;45991;-76
2022/11/12 01:16:22;;;;;;;;;21.75;20.25;;;;;12.72;69.58;102180.03;5013445;28;47542;-73
2022/11/12 01:18:53;;;;;;;;;21.00;19.50;;;;;12.71;69.79;102174.84;4995252;28;47822;-77
2022/11/12 01:21:20;;;;;;;;;22.50;21.50;;;;;12.72;69.94;102179.19;5012964;28;45788;-75
2022/11/12 01:23:45;;;;;;;;;19.50;17.75;;;;;12.71;69.85;102180.97;5013085;28;45723;-74
2022/11/12 01:26:14;;;;;;;;;21.25;17.75;;;;;12.69;69.87;102179.31;5013295;28;46450;-76
2022/11/12 01:28:41;;;;;;;;;18.50;17.00;;;;;12.57;69.87;102154.59;5013391;28;46345;-77
2022/11/12 01:31:09;;;;;;;;;21.50;16.75;;;;;12.68;69.72;102172.41;5012928;28;45769;-74
2022/11/12 01:33:35;;;;;;;;;18.25;17.25;;;;;12.68;70.03;102167.13;5013142;28;45626;-75
2022/11/12 01:36:00;;;;;;;;;21.75;20.00;;;;;12.63;69.96;102159.50;5013128;28;45640;-76
2022/11/12 01:38:25;;;;;;;;;18.25;17.50;;;;;12.66;69.81;102169.84;5012962;28;46543;-77
2022/11/12 01:40:51;;;;;;;;;23.00;18.00;;;;;12.66;70.21;102169.00;5016756;28;45705;-73
2022/11/12 01:43:16;;;;;;;;;20.00;18.50;;;;;12.64;69.83;102153.28;5016577;28;45728;-75
2022/11/12 01:45:48;;;;;;;;;22.00;21.00;;;;;12.63;69.97;102154.25;5016686;28;46487;-75
2022/11/12 01:51:41;;;;;;;;;23.50;21.25;;;;;12.67;69.62;102160.19;5016235;28;45858;-73
2022/11/12 01:54:09;;;;;;;;;27.25;20.75;;;;;12.66;69.96;102153.22;5016058;28;45624;-75
2022/11/12 01:56:36;;;;;;;;;15.75;15.50;;;;;12.65;69.83;102144.47;5016367;28;46429;-77
2022/11/12 01:59:05;;;;;;;;;23.00;21.75;;;;;12.66;69.73;102153.22;5016545;28;46040;-78
2022/11/12 02:01:31;;;;;;;;;22.25;19.25;;;;;12.65;69.64;102146.25;5016154;28;45680;-74
2022/11/12 02:03:57;;;;;;;;;24.00;20.25;;;;;12.64;69.92;102145.41;5015982;28;45700;-78
2022/11/12 02:06:23;;;;;;;;;22.25;21.00;;;;;12.61;70.12;102138.53;4998259;28;48744;-78
2022/11/12 02:08:49;;;;;;;;;20.75;19.50;;;;;12.65;69.63;102147.09;5015787;28;46135;-73
2022/11/12 02:11:17;;;;;;;;;19.75;18.25;;;;;12.63;69.94;102151.63;5015691;28;45649;-76
2022/11/12 02:13:56;;;;;;;;;23.75;21.75;;;;;12.61;69.96;102150.84;5016261;28;45643;-77
2022/11/12 02:22:46;;;;;;;;;20.00;19.25;;;;;12.59;69.70;102168.47;5014574;28;45699;-78
2022/11/12 02:25:15;;;;;;;;;23.75;22.75;;;;;12.58;70.03;102170.25;5016337;28;45775;-77
2022/11/12 02:27:41;;;;;;;;;18.00;16.50;;;;;12.53;69.72;102156.50;5016055;28;45585;-77
2022/11/12 02:30:07;;;;;;;;;21.50;20.75;;;;;12.59;70.06;102160.59;5015929;28;46150;-77
2022/11/12 02:32:32;;;;;;;;;25.50;21.25;;;;;12.59;70.01;102152.69;5015447;28;45744;-75
2022/11/12 02:34:58;;;;;;;;;21.00;20.50;;;;;12.58;70.11;102148.38;5015884;28;45681;-75
2022/11/12 02:37:23;;;;;;;;;22.75;21.00;;;;;12.57;69.55;102151.94;5015914;28;45797;-76
2022/11/12 02:39:48;;;;;;;;;22.25;21.25;;;;;12.56;70.07;102137.09;4997791;28;47407;-75
2022/11/12 02:42:15;;;;;;;;;22.00;22.00;;;;;12.54;69.71;102141.59;5015602;28;45654;-76
2022/11/12 02:44:40;;;;;;;;;23.50;21.25;;;;;12.51;69.93;102131.25;5015846;28;45538;-76
2022/11/12 02:47:06;;;;;;;;;23.50;22.00;;;;;12.53;69.61;102135.47;5015500;28;46409;-77
2022/11/12 02:49:31;;;;;;;;;22.25;20.75;;;;;12.52;70.00;102139.03;5015286;28;45975;-77
2022/11/12 02:51:56;;;;;;;;;18.25;17.25;;;;;12.52;69.83;102135.59;5015475;28;45663;-75
2022/11/12 02:54:22;;;;;;;;;21.50;20.50;;;;;12.52;69.93;102138.22;5015579;28;45729;-76
2022/11/12 02:56:47;;;;;;;;;21.25;20.50;;;;;12.47;69.77;102130.53;5015575;28;45524;-77
2022/11/12 02:59:12;;;;;;;;;22.25;20.25;;;;;12.47;69.70;102133.19;5015336;28;46017;-76
2022/11/12 03:01:38;;;;;;;;;25.25;21.75;;;;;12.48;70.04;102134.88;5015297;28;45713;-75
2022/11/12 03:07:25;;;;;;;;;25.75;21.50;;;;;12.43;69.99;102122.91;5015193;28;45600;-77
2022/11/12 03:09:50;;;;;;;;;24.00;23.00;;;;;12.48;69.56;102134.03;5015296;28;45581;-76
2022/11/12 03:12:16;;;;;;;;;21.75;21.00;;;;;12.47;69.51;102125.28;5014707;28;45558;-77
2022/11/12 03:14:41;;;;;;;;;25.00;22.25;;;;;12.42;69.94;102116.81;4997850;28;45758;-77
2022/11/12 03:17:07;;;;;;;;;22.00;21.25;;;;;12.43;69.83;102122.91;5014917;28;46703;-76
2022/11/12 03:19:32;;;;;;;;;21.75;20.75;;;;;12.45;69.98;102119.28;5014834;28;45983;-75
2022/11/12 03:21:57;;;;;;;;;19.50;19.00;;;;;12.44;69.82;102116.72;5014686;28;45801;-78
2022/11/12 03:24:22;;;;;;;;;21.25;21.25;;;;;12.41;69.67;102104.63;5015006;28;45730;-76
2022/11/12 03:26:48;;;;;;;;;23.25;23.00;;;;;12.41;69.66;102114.28;5014943;28;47563;-76
2022/11/12 03:29:13;;;;;;;;;24.75;23.50;;;;;12.37;69.63;102105.69;5015155;28;46035;-75
2022/11/12 03:31:39;;;;;;;;;23.50;21.00;;;;;12.40;69.70;102116.06;5014949;28;45632;-75
2022/11/12 03:37:26;;;;;;;;;21.50;20.75;;;;;12.36;69.74;102104.00;5014610;28;45620;-75
2022/11/12 03:39:51;;;;;;;;;21.25;17.50;;;;;12.39;69.62;102113.50;5014794;28;45516;-77
2022/11/12 03:42:17;;;;;;;;;19.00;17.75;;;;;12.37;69.94;102113.59;5014749;28;45715;-76
2022/11/12 03:44:42;;;;;;;;;22.25;20.75;;;;;12.36;69.74;102106.63;5014837;28;45557;-77
2022/11/12 03:47:07;;;;;;;;;23.25;20.75;;;;;12.38;69.94;102111.81;5014627;28;46342;-77
2022/11/12 03:49:32;;;;;;;;;20.75;17.00;;;;;12.37;69.67;102115.38;5014275;28;47023;-76
2022/11/12 03:51:58;;;;;;;;;17.50;17.00;;;;;12.31;70.06;102113.91;5014520;28;45537;-75
2022/11/12 03:54:23;;;;;;;;;20.50;17.75;;;;;12.34;69.95;102112.91;5014727;28;45568;-75
2022/11/12 03:56:49;;;;;;;;;18.00;16.25;;;;;12.29;70.18;102112.31;5014689;28;46349;-74
2022/11/12 03:59:14;;;;;;;;;20.00;19.50;;;;;12.38;70.17;102127.56;5014538;28;46032;-75
2022/11/12 04:01:39;;;;;;;;;21.00;18.75;;;;;12.36;69.64;102135.53;5013726;28;45689;-74
2022/11/12 04:10:10;;;;;;;;;23.25;21.00;;;;;12.33;70.13;102130.47;5014135;28;45732;-77
2022/11/12 04:15:21;;;;;;;;;21.00;19.25;;;;;12.33;69.95;102129.59;5014261;28;45589;-77
2022/11/12 04:23:14;;;;;;;;;21.25;16.00;;;;;12.34;70.32;102133.94;5013621;28;45978;-78
2022/11/12 04:28:23;;;;;;;;;21.75;21.00;;;;;12.31;70.27;102140.19;5014001;28;46206;-78
2022/11/12 04:30:49;;;;;;;;;20.75;17.25;;;;;12.30;70.36;102130.63;5013594;28;47267;-76
2022/11/12 04:33:14;;;;;;;;;20.25;16.75;;;;;12.29;70.29;102131.56;5013446;28;45684;-77
2022/11/12 04:35:39;;;;;;;;;16.50;16.50;;;;;12.28;70.27;102129.00;5014015;28;45787;-77
2022/11/12 04:38:05;;;;;;;;;19.50;17.50;;;;;12.28;70.04;102127.22;5014053;28;46977;-75
2022/11/12 04:46:02;;;;;;;;;19.50;17.25;;;;;12.24;70.38;102123.09;5013753;28;45569;-77
2022/11/12 04:48:27;;;;;;;;;15.75;13.50;;;;;12.22;70.31;102127.56;5013974;28;46663;-78
2022/11/12 04:50:56;;;;;;;;;17.75;15.75;;;;;12.17;70.54;102116.44;5013762;28;46393;-78
2022/11/12 04:53:22;;;;;;;;;20.25;17.00;;;;;12.19;70.32;102119.84;5013443;28;45859;-77
2022/11/12 04:55:52;;;;;;;;;19.00;19.00;;;;;12.17;70.51;102133.06;5013893;28;45704;-78
2022/11/12 04:58:18;;;;;;;;;18.75;16.50;;;;;12.11;70.43;102116.78;5013691;28;45603;-76
2022/11/12 05:00:43;;;;;;;;;16.00;15.25;;;;;12.16;70.25;102123.47;5013271;28;46412;-77
2022/11/12 05:03:09;;;;;;;;;16.00;13.25;;;;;12.19;70.78;102127.75;5013084;28;45687;-77
2022/11/12 05:05:34;;;;;;;;;17.00;16.00;;;;;12.19;70.59;102120.72;5013730;28;45747;-77
2022/11/12 05:08:01;;;;;;;;;17.25;16.75;;;;;12.13;70.36;102110.53;5013483;28;45600;-76
2022/11/12 05:10:27;;;;;;;;;15.00;13.00;;;;;12.17;70.73;102114.66;5013684;28;46207;-78
2022/11/12 05:12:52;;;;;;;;;20.25;15.75;;;;;12.20;70.37;102129.41;5013133;28;45657;-76
2022/11/12 05:15:19;;;;;;;;;21.00;16.00;;;;;12.19;70.31;102130.38;5013643;28;45617;-75
2022/11/12 05:17:44;;;;;;;;;16.50;15.25;;;;;12.19;70.60;102127.75;5013373;28;45639;-75
2022/11/12 05:20:11;;;;;;;;;18.25;16.75;;;;;12.18;70.41;102128.66;5013422;28;46261;-75
2022/11/12 05:22:36;;;;;;;;;15.25;15.25;;;;;12.13;70.49;102115.78;5012798;28;45790;-76
2022/11/12 05:25:03;;;;;;;;;19.25;14.00;;;;;12.16;70.45;102126.09;5013548;28;45716;-76
2022/11/12 05:27:28;;;;;;;;;19.25;16.00;;;;;12.18;70.52;102126.03;5013270;28;45566;-78
2022/11/12 05:29:53;;;;;;;;;15.50;15.00;;;;;12.16;70.64;102120.84;5013089;28;46053;-76
2022/11/12 05:32:19;;;;;;;;;19.00;17.00;;;;;12.19;70.58;102125.09;5012908;28;45722;-75
2022/11/12 05:38:06;;;;;;;;;18.75;18.00;;;;;12.19;70.23;102119.84;5012856;28;45543;-76
2022/11/12 05:40:31;;;;;;;;;20.25;17.00;;;;;12.19;70.53;102125.97;4995510;28;46124;-74
2022/11/12 05:42:57;;;;;;;;;16.25;14.75;;;;;12.19;70.51;102118.06;5012799;28;45647;-77
2022/11/12 05:45:22;;;;;;;;;14.25;14.00;;;;;12.19;70.51;102111.97;5013379;28;45861;-76
2022/11/12 05:47:47;;;;;;;;;16.00;15.25;;;;;12.18;70.38;102111.13;5012714;28;46355;-78
2022/11/12 05:53:34;;;;;;;;;14.00;13.50;;;;;12.15;70.33;102106.00;5012582;28;45629;-77
2022/11/12 05:56:01;;;;;;;;;15.50;15.25;;;;;12.10;70.61;102105.41;5013057;28;45851;-77
2022/11/12 05:58:26;;;;;;;;;15.00;13.25;;;;;12.07;70.29;102110.84;5012659;28;47636;-77
2022/11/12 06:00:52;;;;;;;;;14.00;13.75;;;;;12.13;70.33;102115.78;5012565;28;46208;-75
2022/11/12 06:03:17;;;;;;;;;16.00;13.00;;;;;12.08;70.45;102127.47;5012475;28;45708;-77
2022/11/12 06:05:42;;;;;;;;;14.00;13.25;;;;;12.08;70.68;102130.94;5012710;28;45604;-77
2022/11/12 06:08:08;;;;;;;;;15.25;13.00;;;;;12.06;70.34;102132.78;5012648;28;46528;-76
2022/11/12 06:10:34;;;;;;;;;9.50;9.00;;;;;12.06;70.49;102126.69;5012522;28;45671;-77
2022/11/12 06:12:59;;;;;;;;;16.50;15.00;;;;;12.05;70.57;102132.84;5012278;28;45723;-78
2022/11/12 06:15:28;;;;;;;;;13.25;13.00;;;;;12.03;70.64;102132.09;5012955;28;45712;-73
2022/11/12 06:17:53;;;;;;;;;19.00;15.25;;;;;11.99;70.29;102125.28;5012755;28;45499;-74
2022/11/12 06:23:40;;;;;;;;;17.50;15.00;;;;;12.00;70.63;102132.25;5010463;28;45877;-75
2022/11/12 06:26:06;;;;;;;;;21.00;18.50;;;;;11.99;70.40;102126.16;4997204;28;45924;-75
2022/11/12 06:28:31;;;;;;;;;26.00;22.00;;;;;11.96;70.54;102126.31;5015849;28;46472;-75
2022/11/12 06:30:56;;;;;;;;;21.50;20.50;;;;;11.97;70.69;102130.66;5015888;28;46140;-75
2022/11/12 06:33:22;;;;;;;;;24.00;22.50;;;;;11.90;70.83;102117.91;5015674;28;45686;-77
2022/11/12 06:35:56;;;;;;;;;23.50;22.00;;;;;11.95;70.61;102131.66;5015839;28;45709;-78
2022/11/12 06:38:21;;;;;;;;;21.00;19.25;;;;;11.93;70.78;102136.97;5015781;28;46525;-76
2022/11/12 06:40:46;;;;;;;;;16.00;14.50;;;;;11.92;70.79;102135.28;5015601;28;46094;-75
2022/11/12 06:43:12;;;;;;;;;17.25;15.50;;;;;11.90;70.76;102125.78;5015780;28;45695;-78
2022/11/12 06:45:37;;;;;;;;;20.25;16.50;;;;;11.89;70.52;102139.84;5015789;28;45643;-77
2022/11/12 06:48:02;;;;;;;;;20.25;17.75;;;;;11.80;70.63;102124.56;5015662;28;45719;-76
2022/11/12 06:53:50;;;;;;;;;19.00;18.50;;;;;11.88;70.64;102138.13;5015099;28;45834;-76
2022/11/12 06:56:16;;;;;;;;;20.00;17.25;;;;;11.86;70.74;102140.00;5015873;28;45644;-75
2022/11/12 06:58:42;;;;;;;;;22.00;19.75;;;;;11.87;70.63;102142.56;5015456;28;46323;-78
2022/11/12 07:01:15;;;;;;;;;18.75;17.75;;;;;11.87;70.76;102146.97;5015112;28;46497;-76
2022/11/12 07:03:42;;;;;;;;;21.00;18.75;;;;;11.87;70.33;102149.59;5015089;28;45721;-76
2022/11/12 07:06:14;;;;;;;;;24.25;21.00;;;;;11.84;70.59;102144.47;5015354;28;45815;-76
2022/11/12 07:08:40;;;;;;;;;18.75;15.75;;;;;11.87;70.42;102152.22;5015412;28;45708;-76
2022/11/12 07:11:06;;;;;;;;;15.75;14.75;;;;;11.86;70.64;102156.63;5014926;28;47185;-75
2022/11/12 07:13:34;;;;;;;;;24.25;22.75;;;;;11.83;70.59;102135.75;5014744;28;45681;-76
2022/11/12 07:16:00;;;;;;;;;19.75;14.50;;;;;11.83;70.68;102142.78;5015223;28;45893;-75
2022/11/12 07:18:26;;;;;;;;;21.75;20.00;;;;;11.84;70.51;102153.22;5015286;28;45978;-76
2022/11/12 07:24:13;;;;;;;;;17.50;15.50;;;;;11.74;70.49;102144.13;5013878;28;45783;-77
2022/11/12 07:26:38;;;;;;;;;19.50;17.00;;;;;11.75;70.37;102151.06;4997347;28;45640;-73
2022/11/12 07:29:06;;;;;;;;;20.00;18.75;;;;;11.71;70.62;102149.50;5015096;28;45597;-77
2022/11/12 07:31:31;;;;;;;;;18.75;15.75;;;;;11.73;70.50;102169.50;5014561;28;47276;-78
2022/11/12 07:33:57;;;;;;;;;17.75;16.25;;;;;11.65;70.50;102150.66;5014339;28;45553;-79
2022/11/12 07:36:22;;;;;;;;;20.00;19.25;;;;;11.64;70.65;102158.59;5013900;28;45470;-77
2022/11/12 07:38:51;;;;;;;;;20.00;19.25;;;;;11.70;70.66;102167.03;5014637;28;47068;-77
2022/11/12 07:41:19;;;;;;;;;20.25;17.75;;;;;11.68;70.65;102173.28;5014631;28;45734;-75
2022/11/12 07:43:46;;;;;;;;;18.00;16.75;;;;;11.64;70.61;102164.72;5014483;28;45613;-76
2022/11/12 07:46:15;;;;;;;;;18.50;16.00;;;;;11.69;70.76;102170.56;5014591;28;45573;-77
2022/11/12 07:48:41;;;;;;;;;20.25;17.25;;;;;11.70;70.67;102168.81;5014862;28;45740;-76
2022/11/12 07:54:28;;;;;;;;;20.50;17.00;;;;;11.73;70.58;102179.16;5014382;28;45501;-79
2022/11/12 07:56:53;;;;;;;;;25.75;19.00;;;;;11.73;70.72;102174.78;5014879;28;45611;-78
2022/11/12 07:59:18;;;;;;;;;18.50;16.00;;;;;11.71;70.42;102175.75;5014639;28;46703;-74
2022/11/12 08:01:44;;;;;;;;;18.00;15.00;;;;;11.74;70.65;102184.34;5014415;28;45604;-78
2022/11/12 08:04:13;;;;;;;;;18.75;16.50;;;;;11.73;70.42;102182.66;5014187;28;45816;-74
2022/11/12 08:06:38;;;;;;;;;18.25;16.75;;;;;11.77;70.39;102184.19;5014609;28;45771;-72
2022/11/12 08:09:06;;;;;;;;;22.50;19.25;;;;;11.75;70.34;102182.56;5014543;28;45540;-77
2022/11/12 08:11:32;;;;;;;;;21.00;18.50;;;;;11.82;70.52;102188.38;5014158;28;45938;-73
2022/11/12 08:13:58;;;;;;;;;24.75;19.50;;;;;11.83;70.87;102188.28;5013962;28;45545;-74
2022/11/12 08:16:23;;;;;;;;;20.25;19.25;;;;;11.78;70.11;102192.91;5014541;28;45634;-77
2022/11/12 08:18:49;;;;;;;;;24.75;19.50;;;;;11.87;70.44;102194.25;4996188;28;48026;-74
2022/11/12 08:24:36;;;;;;;;;21.25;18.00;;;;;11.91;70.37;102199.25;5013058;28;45652;-73
2022/11/12 08:27:01;;;;;;;;;18.00;17.75;;;;;11.87;70.30;102191.63;5014389;28;45720;-74
2022/11/12 08:29:26;;;;;;;;;19.25;16.75;;;;;11.87;70.17;102196.88;5014023;28;45652;-75
2022/11/12 08:31:51;;;;;;;;;17.25;16.75;;;;;11.96;70.32;102207.75;5013888;28;45689;-75
2022/11/12 08:34:17;;;;;;;;;20.75;19.00;;;;;11.99;70.11;102210.19;5013820;28;45533;-77
2022/11/12 08:36:42;;;;;;;;;21.00;16.75;;;;;12.00;70.04;102211.91;5014282;28;45732;-78
2022/11/12 08:39:08;;;;;;;;;19.50;17.75;;;;;12.02;70.21;102215.31;5014051;28;45605;-76
2022/11/12 08:41:33;;;;;;;;;19.50;16.75;;;;;12.03;69.97;102208.28;5013821;28;45576;-75
2022/11/12 08:43:58;;;;;;;;;17.50;17.50;;;;;12.02;70.03;102210.06;5013345;28;45659;-78
2022/11/12 08:46:24;;;;;;;;;19.25;15.50;;;;;12.03;70.05;102213.53;5013830;28;45855;-76
2022/11/12 08:48:49;;;;;;;;;18.50;17.50;;;;;12.07;70.04;102221.19;5013436;28;45575;-76
2022/11/12 08:54:36;;;;;;;;;19.25;17.75;;;;;12.08;70.17;102212.38;5013612;28;45574;-75
2022/11/12 08:57:02;;;;;;;;;16.50;16.00;;;;;12.11;69.94;102209.56;5013775;28;45560;-78
2022/11/12 08:59:27;;;;;;;;;18.00;15.75;;;;;12.17;69.81;102205.78;5013945;28;45763;-77
2022/11/12 09:01:52;;;;;;;;;15.00;14.75;;;;;12.19;69.89;102206.56;5013413;28;45642;-77
2022/11/12 09:04:18;;;;;;;;;17.25;15.50;;;;;12.20;69.76;102206.47;5013467;28;45676;-76
2022/11/12 09:10:05;;;;;;;;;18.00;18.00;;;;;12.24;70.05;102203.69;5013280;28;45579;-73
2022/11/12 09:12:31;;;;;;;;;20.75;17.25;;;;;12.25;69.93;102200.13;4995089;28;46932;-76
2022/11/12 09:14:56;;;;;;;;;26.75;22.25;;;;;12.27;69.87;102204.38;5013060;28;45749;-73
2022/11/12 09:17:22;;;;;;;;;20.50;17.00;;;;;12.18;70.10;102187.31;5013356;28;45602;-74
2022/11/12 09:19:47;;;;;;;;;18.00;17.25;;;;;12.24;69.98;102188.78;4995210;28;46320;-75
2022/11/12 09:22:12;;;;;;;;;20.50;17.25;;;;;12.37;69.70;102202.09;5012890;28;45974;-76
2022/11/12 09:24:38;;;;;;;;;21.75;20.25;;;;;12.24;69.83;102174.78;5012847;28;45809;-75
2022/11/12 09:27:03;;;;;;;;;19.50;17.75;;;;;12.41;69.93;102194.00;5013325;28;45833;-75
2022/11/12 09:29:28;;;;;;;;;17.25;15.50;;;;;12.44;69.95;102195.59;5013001;28;47295;-76
2022/11/12 09:31:54;;;;;;;;;21.50;18.25;;;;;12.44;69.72;102198.22;5012980;28;45982;-74
2022/11/12 09:34:19;;;;;;;;;18.25;16.50;;;;;12.47;69.63;102196.25;5012776;28;45561;-74
2022/11/12 09:40:14;;;;;;;;;21.50;19.50;;;;;12.58;69.92;102191.28;5012848;28;46098;-78
2022/11/12 09:42:43;;;;;;;;;18.50;17.00;;;;;12.59;69.66;102195.63;5013086;28;46840;-76
2022/11/12 09:45:28;;;;;;;;;54.00;43.25;;;;;12.64;69.83;102195.34;5013342;28;45595;-76
2022/11/12 09:47:58;;;;;;;;;55.75;43.00;;;;;12.64;69.74;102198.00;5013293;28;45550;-77
2022/11/12 09:50:30;;;;;;;;;22.00;20.00;;;;;12.70;69.94;102208.19;5012413;28;46577;-78
2022/11/12 09:53:03;;;;;;;;;24.00;22.00;;;;;12.72;69.92;102214.22;5012792;28;46209;-79
2022/11/12 09:55:35;;;;;;;;;23.50;21.50;;;;;12.76;69.87;102210.47;5012664;28;45490;-76
2022/11/12 09:58:01;;;;;;;;;24.00;21.75;;;;;12.76;69.87;102209.63;5013036;28;45861;-77
2022/11/12 10:00:27;;;;;;;;;22.50;20.75;;;;;12.80;69.91;102224.31;5014724;28;46516;-77
2022/11/12 10:03:05;;;;;;;;;25.75;21.25;;;;;12.85;69.65;102220.50;4998029;28;46519;-78
2022/11/12 10:06:08;;;;;;;;;24.50;22.25;;;;;12.89;69.72;102219.41;5016251;28;45756;-76
2022/11/12 10:08:45;;;;;;;;;15.75;14.25;;;;;12.93;69.55;102220.94;5016537;28;45577;-77
2022/11/12 10:14:58;;;;;;;;;23.50;23.00;;;;;13.02;69.67;102216.94;5015930;28;45689;-78
2022/11/12 10:17:26;;;;;;;;;25.50;23.00;;;;;13.04;69.54;102218.56;4916340;28;46051;-76
2022/11/12 10:20:44;;;;;;;;;19.75;18.00;;;;;13.08;69.41;102221.84;4916434;28;45961;-77
2022/11/12 10:23:25;;;;;;;;;25.25;24.25;;;;;13.14;69.33;102215.44;4916057;28;48615;-78
2022/11/12 10:25:55;;;;;;;;;21.25;18.25;;;;;13.19;69.52;102210.75;4935098;28;47617;-75
2022/11/12 10:28:24;;;;;;;;;8.00;7.00;;;;;13.24;69.38;102211.34;4935529;28;45775;-77
2022/11/12 10:30:51;;;;;;;;;20.00;18.75;;;;;13.25;69.02;102198.13;4935232;28;45857;-77
2022/11/12 10:33:16;;;;;;;;;21.50;19.25;;;;;13.28;69.26;102197.09;4934665;28;46426;-78
2022/11/12 10:35:42;;;;;;;;;24.75;23.25;;;;;13.39;69.37;102202.56;4935146;28;45722;-76
2022/11/12 10:38:14;;;;;;;;;24.25;22.00;;;;;13.42;69.02;102195.38;4935288;28;45623;-77
2022/11/12 10:40:41;;;;;;;;;22.25;21.50;;;;;13.48;68.85;102199.44;4935100;28;45646;-76
2022/11/12 10:43:15;;;;;;;;;28.00;25.75;;;;;13.53;68.81;102201.81;4934904;28;46407;-75
2022/11/12 10:45:46;;;;;;;;;24.50;22.75;;;;;13.53;68.88;102194.75;4935342;28;46096;-76
2022/11/12 10:48:32;;;;;;;;;19.50;17.50;;;;;13.62;69.14;102201.25;4934980;28;45841;-76
2022/11/12 10:50:58;;;;;;;;;26.50;23.75;;;;;13.63;68.68;102195.06;4934948;28;45885;-75
2022/11/12 10:53:36;;;;;;;;;27.50;23.50;;;;;13.62;69.16;102188.94;4936965;28;46691;-78
2022/11/12 10:56:04;;;;;;;;;26.00;24.25;;;;;13.63;68.90;102174.84;5015664;28;46202;-75
2022/11/12 10:58:30;;;;;;;;;28.25;26.25;;;;;13.69;68.62;102176.25;5014201;28;45670;-77
2022/11/12 11:01:11;;;;;;;;;25.75;24.25;;;;;13.74;68.47;102172.41;5015663;28;45758;-78
2022/11/12 11:03:46;;;;;;;;;26.50;23.25;;;;;13.81;68.84;102172.91;5014949;28;46433;-75
2022/11/12 11:06:15;;;;;;;;;28.50;22.50;;;;;13.83;68.24;102176.28;5015134;28;46158;-76
2022/11/12 11:08:51;;;;;;;;;24.50;23.00;;;;;13.86;68.78;102166.44;5015480;28;45753;-76
2022/11/12 11:11:28;;;;;;;;;26.00;24.00;;;;;13.88;68.75;102153.13;5013678;28;45591;-76
2022/11/12 11:13:56;;;;;;;;;24.50;24.00;;;;;13.91;68.36;102146.84;5014995;28;45563;-77
2022/11/12 11:16:26;;;;;;;;;27.50;26.00;;;;;13.99;68.20;102155.13;5014871;28;46408;-78
2022/11/12 11:18:58;;;;;;;;;31.75;27.25;;;;;13.99;68.55;102149.84;5015237;28;45592;-76
2022/11/12 11:21:52;;;;;;;;;27.00;26.25;;;;;14.05;68.04;102154.75;5013578;28;45976;-77
2022/11/12 11:24:41;;;;;;;;;32.50;28.75;;;;;14.08;67.92;102144.91;5005467;28;46721;-76
2022/11/12 11:27:28;;;;;;;;;29.50;26.75;;;;;14.13;68.23;102148.09;5013759;28;47115;-77
2022/11/12 11:30:02;;;;;;;;;31.25;27.75;;;;;14.15;68.28;102132.16;5013767;28;45779;-77
2022/11/12 11:32:36;;;;;;;;;27.25;25.75;;;;;14.18;68.23;102124.09;5013652;28;45651;-77
2022/11/12 11:38:37;;;;;;;;;29.50;27.50;;;;;14.27;67.85;102118.22;5013455;28;46220;-77
2022/11/12 11:41:39;;;;;;;;;32.50;27.50;;;;;14.31;67.85;102111.81;5013641;28;45776;-77
2022/11/12 11:44:26;;;;;;;;;32.25;29.25;;;;;14.35;67.76;102107.22;5013406;28;46056;-77
2022/11/12 11:47:15;;;;;;;;;31.00;28.75;;;;;14.41;68.07;102110.34;5013741;28;45575;-77
2022/11/12 11:49:50;;;;;;;;;25.75;25.50;;;;;14.46;67.93;102110.91;5013521;28;46192;-78
2022/11/12 11:56:22;;;;;;;;;27.00;25.75;;;;;14.58;67.80;102106.63;5013386;28;45739;-75
2022/11/12 11:59:13;;;;;;;;;28.00;26.25;;;;;14.64;67.56;102106.22;5002461;28;46338;-78
2022/11/12 12:02:00;;;;;;;;;32.75;30.25;;;;;14.67;67.45;102106.91;5012808;28;46417;-77
2022/11/12 12:04:47;;;;;;;;;32.00;28.75;;;;;14.71;67.68;102104.91;5012753;28;45949;-76
2022/11/12 12:07:18;;;;;;;;;32.75;29.75;;;;;14.76;67.43;102104.59;4995218;28;45689;-76
2022/11/12 12:10:02;;;;;;;;;30.25;24.25;;;;;14.77;67.16;102096.59;5013036;28;46450;-75
2022/11/12 12:12:48;;;;;;;;;30.00;29.00;;;;;14.84;67.13;102095.25;5012804;28;46402;-75
2022/11/12 12:15:48;;;;;;;;;31.00;29.00;;;;;14.83;67.03;102088.28;5013252;28;45908;-77
2022/11/12 12:18:39;;;;;;;;;32.50;29.75;;;;;14.94;67.13;102099.00;5012834;28;45734;-78
2022/11/12 12:24:36;;;;;;;;;37.00;33.75;;;;;14.99;67.10;102086.34;4970039;28;1223058;-77
2022/11/12 12:27:11;;;;;;;;;35.25;30.25;;;;;15.08;66.71;102077.81;5014381;28;45812;-77
2022/11/12 12:29:42;;;;;;;;;35.50;33.00;;;;;15.10;66.60;102072.44;5014393;28;45613;-77
2022/11/12 12:32:19;;;;;;;;;36.25;33.00;;;;;15.17;66.44;102080.78;5013563;28;46297;-75
2022/11/12 12:34:50;;;;;;;;;38.50;31.50;;;;;15.21;66.37;102077.00;4995903;28;47146;-75
2022/11/12 12:40:53;;;;;;;;;35.25;31.50;;;;;15.31;66.29;102065.72;5013839;28;45728;-77
2022/11/12 12:43:32;;;;;;;;;34.75;31.50;;;;;15.35;66.38;102071.63;5013855;28;45753;-76
2022/11/12 12:45:58;;;;;;;;;33.75;30.25;;;;;15.36;66.33;102066.25;5013881;28;46176;-75
2022/11/12 12:48:23;;;;;;;;;34.50;30.25;;;;;15.42;66.25;102062.34;5013976;28;45807;-76
2022/11/12 12:50:51;;;;;;;;;34.00;32.33;;;;;15.44;66.28;102061.25;5013850;28;45845;-74
2022/11/12 12:56:44;;;;;;;;;35.50;32.50;;;;;15.52;65.76;102056.34;5013762;28;46346;-77
2022/11/12 12:59:19;;;;;;;;;33.75;31.50;;;;;15.57;65.90;102063.09;5013497;28;45730;-75